createdAt,value
2024-05-09T00:00:39.062Z,66.68
2024-05-09T00:01:34.097Z,66.58
2024-05-09T00:02:33.132Z,66.50
2024-05-09T00:03:33.131Z,66.21
2024-05-09T00:04:33.105Z,66.37
2024-05-09T00:05:33.178Z,66.34
2024-05-09T00:06:33.065Z,66.73
2024-05-09T00:07:33.077Z,66.64
2024-05-09T00:08:33.165Z,66.44
2024-05-09T00:09:33.065Z,66.48
2024-05-09T00:10:37.035Z,66.40
2024-05-09T00:11:34.159Z,66.51
2024-05-09T00:12:33.288Z,66.44
2024-05-09T00:13:33.122Z,66.65
2024-05-09T00:14:33.220Z,66.52
2024-05-09T00:15:33.159Z,66.45
2024-05-09T00:16:33.157Z,66.71
2024-05-09T00:17:33.392Z,66.65
2024-05-09T00:18:33.227Z,66.78
2024-05-09T00:19:33.264Z,66.82
2024-05-09T00:20:38.383Z,66.80
2024-05-09T00:21:34.130Z,66.82
2024-05-09T00:22:33.160Z,66.91
2024-05-09T00:23:33.255Z,66.88
2024-05-09T00:24:33.175Z,66.94
2024-05-09T00:25:33.154Z,67.05
2024-05-09T00:26:33.208Z,67.17
2024-05-09T00:27:33.284Z,66.83
2024-05-09T00:28:33.162Z,66.93
2024-05-09T00:29:33.200Z,66.96
2024-05-09T00:30:35.934Z,67.00
2024-05-09T00:31:33.194Z,66.65
2024-05-09T00:32:33.374Z,66.67
2024-05-09T00:33:33.352Z,66.55
2024-05-09T00:34:33.225Z,66.63
2024-05-09T00:35:33.353Z,66.52
2024-05-09T00:36:33.178Z,66.43
2024-05-09T00:37:33.291Z,66.49
2024-05-09T00:38:33.278Z,66.50
2024-05-09T00:39:33.204Z,66.39
2024-05-09T00:40:38.959Z,66.44
2024-05-09T00:41:34.385Z,66.52
2024-05-09T00:42:33.213Z,66.50
2024-05-09T00:43:33.209Z,66.51
2024-05-09T00:44:33.368Z,66.78
2024-05-09T00:45:33.184Z,66.74
2024-05-09T00:46:33.210Z,66.74
2024-05-09T00:47:33.387Z,66.57
2024-05-09T00:48:33.366Z,66.47
2024-05-09T00:49:33.317Z,66.43
2024-05-09T00:50:36.532Z,66.44
2024-05-09T00:51:33.287Z,66.42
2024-05-09T00:52:33.298Z,66.64
2024-05-09T00:53:33.391Z,66.83
2024-05-09T00:54:33.298Z,66.71
2024-05-09T00:55:33.295Z,66.68
2024-05-09T00:56:33.471Z,66.89
2024-05-09T00:57:33.302Z,66.80
2024-05-09T00:58:33.293Z,66.90
2024-05-09T00:59:33.360Z,66.78
2024-05-09T01:00:39.008Z,66.84
2024-05-09T01:01:34.401Z,66.82
2024-05-09T01:02:33.433Z,66.80
2024-05-09T01:03:33.550Z,66.55
2024-05-09T01:04:33.348Z,66.71
2024-05-09T01:05:33.388Z,66.96
2024-05-09T01:06:33.317Z,67.28
2024-05-09T01:07:33.818Z,67.21
2024-05-09T01:08:33.516Z,67.35
2024-05-09T01:09:33.367Z,67.39
2024-05-09T01:10:35.260Z,67.56
2024-05-09T01:11:33.564Z,67.72
2024-05-09T01:12:33.512Z,67.52
2024-05-09T01:13:33.442Z,67.50
2024-05-09T01:14:33.536Z,67.64
2024-05-09T01:15:33.465Z,67.67
2024-05-09T01:16:33.609Z,67.68
2024-05-09T01:17:33.653Z,67.46
2024-05-09T01:18:33.550Z,67.27
2024-05-09T01:19:33.539Z,67.33
2024-05-09T01:20:41.026Z,67.17
2024-05-09T01:21:34.468Z,66.94
2024-05-09T01:22:33.813Z,66.91
2024-05-09T01:23:33.577Z,66.86
2024-05-09T01:24:33.448Z,66.69
2024-05-09T01:25:33.450Z,66.35
2024-05-09T01:26:33.542Z,66.65
2024-05-09T01:27:33.466Z,66.90
2024-05-09T01:28:33.520Z,66.66
2024-05-09T01:29:33.518Z,66.39
2024-05-09T01:30:36.109Z,66.46
2024-05-09T01:31:33.590Z,66.36
2024-05-09T01:32:33.675Z,66.60
2024-05-09T01:33:33.763Z,66.18
2024-05-09T01:34:33.559Z,66.14
2024-05-09T01:35:33.560Z,66.51
2024-05-09T01:36:33.508Z,66.24
2024-05-09T01:37:33.815Z,66.36
2024-05-09T01:38:33.599Z,66.33
2024-05-09T01:39:33.519Z,66.33
2024-05-09T01:40:38.042Z,66.17
2024-05-09T01:41:34.583Z,66.06
2024-05-09T01:42:33.547Z,65.96
2024-05-09T01:43:33.546Z,65.78
2024-05-09T01:44:33.598Z,65.88
2024-05-09T01:45:33.567Z,66.07
2024-05-09T01:46:33.529Z,66.26
2024-05-09T01:47:33.697Z,66.37
2024-05-09T01:48:33.619Z,66.49
2024-05-09T01:49:33.629Z,66.36
2024-05-09T01:50:38.678Z,66.23
2024-05-09T01:51:34.615Z,66.22
2024-05-09T01:52:33.595Z,66.24
2024-05-09T01:53:33.683Z,66.02
2024-05-09T01:54:33.594Z,65.97
2024-05-09T01:55:33.593Z,65.86
2024-05-09T01:56:33.711Z,65.89
2024-05-09T01:57:33.598Z,65.99
2024-05-09T01:58:33.612Z,66.23
2024-05-09T01:59:33.665Z,66.23
2024-05-09T02:00:39.141Z,66.15
2024-05-09T02:01:55.531Z,66.06
2024-05-09T02:02:34.687Z,66.24
2024-05-09T02:03:33.943Z,66.20
2024-05-09T02:04:33.723Z,66.02
2024-05-09T02:05:33.659Z,65.93
2024-05-09T02:06:33.641Z,66.05
2024-05-09T02:07:33.634Z,66.24
2024-05-09T02:08:33.681Z,66.07
2024-05-09T02:09:33.622Z,66.04
2024-05-09T02:10:33.882Z,66.19
2024-05-09T02:11:33.718Z,66.37
2024-05-09T02:12:33.960Z,66.34
2024-05-09T02:13:33.646Z,66.15
2024-05-09T02:14:33.690Z,66.12
2024-05-09T02:15:33.629Z,66.40
2024-05-09T02:16:33.632Z,66.67
2024-05-09T02:17:33.982Z,66.56
2024-05-09T02:18:33.707Z,66.54
2024-05-09T02:19:33.752Z,66.47
2024-05-09T02:20:36.507Z,66.23
2024-05-09T02:21:33.672Z,66.06
2024-05-09T02:22:33.666Z,65.86
2024-05-09T02:23:33.796Z,65.85
2024-05-09T02:24:33.676Z,65.73
2024-05-09T02:25:33.684Z,65.97
2024-05-09T02:26:33.695Z,65.98
2024-05-09T02:27:33.684Z,65.89
2024-05-09T02:28:33.666Z,66.03
2024-05-09T02:29:33.742Z,65.99
2024-05-09T02:30:39.122Z,66.17
2024-05-09T02:31:34.654Z,66.10
2024-05-09T02:32:33.821Z,65.98
2024-05-09T02:33:34.023Z,65.89
2024-05-09T02:34:33.766Z,65.85
2024-05-09T02:35:33.799Z,65.93
2024-05-09T02:36:33.694Z,66.08
2024-05-09T02:37:33.727Z,65.80
2024-05-09T02:38:33.755Z,65.62
2024-05-09T02:39:33.712Z,65.63
2024-05-09T02:40:37.695Z,65.50
2024-05-09T02:41:34.801Z,65.45
2024-05-09T02:42:33.775Z,64.96
2024-05-09T02:43:33.796Z,64.95
2024-05-09T02:44:33.924Z,65.13
2024-05-09T02:45:33.840Z,65.17
2024-05-09T02:46:33.775Z,65.26
2024-05-09T02:47:33.909Z,65.26
2024-05-09T02:48:33.837Z,65.62
2024-05-09T02:49:34.031Z,65.44
2024-05-09T02:50:38.463Z,65.29
2024-05-09T02:51:34.918Z,65.29
2024-05-09T02:52:33.916Z,65.34
2024-05-09T02:53:34.124Z,65.45
2024-05-09T02:54:33.919Z,65.32
2024-05-09T02:55:33.956Z,65.45
2024-05-09T02:56:33.991Z,65.24
2024-05-09T02:57:33.944Z,65.20
2024-05-09T02:58:33.932Z,65.18
2024-05-09T02:59:34.084Z,65.20
2024-05-09T03:00:38.949Z,65.33
2024-05-09T03:01:35.258Z,65.32
2024-05-09T03:02:34.172Z,65.13
2024-05-09T03:03:34.275Z,65.11
2024-05-09T03:04:34.185Z,65.33
2024-05-09T03:05:34.296Z,65.29
2024-05-09T03:06:34.048Z,65.23
2024-05-09T03:07:34.070Z,65.15
2024-05-09T03:08:34.362Z,65.00
2024-05-09T03:09:34.105Z,64.86
2024-05-09T03:11:34.372Z,64.79
2024-05-09T03:12:36.540Z,64.79
2024-05-09T03:13:34.263Z,65.01
2024-05-09T03:14:34.310Z,65.06
2024-05-09T03:15:34.247Z,64.85
2024-05-09T03:16:34.256Z,64.76
2024-05-09T03:17:34.617Z,64.94
2024-05-09T03:18:34.273Z,65.48
2024-05-09T03:19:34.302Z,65.67
2024-05-09T03:20:35.970Z,65.56
2024-05-09T03:21:34.282Z,65.45
2024-05-09T03:22:34.257Z,65.56
2024-05-09T03:23:34.305Z,65.65
2024-05-09T03:24:34.291Z,65.75
2024-05-09T03:25:34.549Z,65.63
2024-05-09T03:26:34.343Z,65.55
2024-05-09T03:27:34.263Z,65.46
2024-05-09T03:28:34.260Z,65.44
2024-05-09T03:29:34.353Z,65.67
2024-05-09T03:30:40.762Z,65.85
2024-05-09T03:31:35.394Z,66.09
2024-05-09T03:32:34.470Z,65.96
2024-05-09T03:33:34.534Z,65.93
2024-05-09T03:34:34.327Z,65.75
2024-05-09T03:35:34.359Z,65.72
2024-05-09T03:36:34.313Z,65.85
2024-05-09T03:37:34.295Z,66.05
2024-05-09T03:38:34.378Z,66.00
2024-05-09T03:39:34.312Z,66.04
2024-05-09T03:40:34.419Z,66.25
2024-05-09T03:41:34.551Z,66.27
2024-05-09T03:42:34.513Z,66.26
2024-05-09T03:43:34.632Z,66.15
2024-05-09T03:44:34.701Z,66.05
2024-05-09T03:45:34.685Z,65.99
2024-05-09T03:46:34.745Z,65.85
2024-05-09T03:47:34.944Z,66.00
2024-05-09T03:48:34.919Z,66.24
2024-05-09T03:49:35.021Z,66.11
2024-05-09T03:50:36.324Z,66.01
2024-05-09T03:51:35.061Z,66.13
2024-05-09T03:52:35.152Z,65.86
2024-05-09T03:53:35.279Z,66.09
2024-05-09T03:54:35.244Z,66.16
2024-05-09T03:55:35.312Z,66.06
2024-05-09T03:56:35.401Z,65.99
2024-05-09T03:57:35.531Z,66.00
2024-05-09T03:58:35.449Z,65.90
2024-05-09T03:59:35.559Z,66.00
2024-05-09T04:00:38.731Z,66.01
2024-05-09T04:01:35.678Z,66.08
2024-05-09T04:02:35.668Z,66.16
2024-05-09T04:03:35.593Z,66.30
2024-05-09T04:04:35.596Z,66.25
2024-05-09T04:05:35.694Z,66.23
2024-05-09T04:06:35.559Z,66.24
2024-05-09T04:07:35.567Z,66.18
2024-05-09T04:08:35.701Z,66.19
2024-05-09T04:09:35.568Z,66.22
2024-05-09T04:10:35.874Z,66.36
2024-05-09T04:11:35.664Z,66.45
2024-05-09T04:12:35.630Z,66.42
2024-05-09T04:13:35.579Z,66.50
2024-05-09T04:14:35.665Z,66.55
2024-05-09T04:15:35.607Z,66.58
2024-05-09T04:16:35.631Z,66.76
2024-05-09T04:17:35.884Z,66.75
2024-05-09T04:18:35.874Z,66.60
2024-05-09T04:19:35.926Z,66.47
2024-05-09T04:20:39.370Z,66.50
2024-05-09T04:21:36.905Z,66.39
2024-05-09T04:22:36.380Z,66.32
2024-05-09T04:23:35.998Z,66.32
2024-05-09T04:24:35.904Z,66.25
2024-05-09T04:25:35.893Z,66.07
2024-05-09T04:26:35.929Z,66.00
2024-05-09T04:27:35.917Z,65.91
2024-05-09T04:28:35.916Z,65.80
2024-05-09T04:29:36.001Z,65.76
2024-05-09T04:30:39.324Z,65.70
2024-05-09T04:31:36.922Z,65.76
2024-05-09T04:32:36.156Z,65.80
2024-05-09T04:33:36.283Z,65.96
2024-05-09T04:34:36.081Z,65.78
2024-05-09T04:35:35.992Z,65.71
2024-05-09T04:36:35.934Z,65.90
2024-05-09T04:37:35.962Z,65.94
2024-05-09T04:38:36.106Z,65.97
2024-05-09T04:39:35.942Z,65.85
2024-05-09T04:40:37.308Z,65.70
2024-05-09T04:41:36.144Z,65.69
2024-05-09T04:42:36.144Z,65.50
2024-05-09T04:43:36.175Z,65.50
2024-05-09T04:44:36.265Z,65.68
2024-05-09T04:45:36.298Z,65.93
2024-05-09T04:46:36.329Z,65.91
2024-05-09T04:47:37.007Z,65.80
2024-05-09T04:48:36.588Z,65.57
2024-05-09T04:49:37.438Z,65.52
2024-05-09T04:50:38.895Z,65.43
2024-05-09T04:51:36.562Z,65.82
2024-05-09T04:52:36.571Z,65.83
2024-05-09T04:53:36.702Z,65.35
2024-05-09T04:54:36.921Z,65.13
2024-05-09T04:55:36.633Z,65.02
2024-05-09T04:56:36.653Z,65.19
2024-05-09T04:57:36.564Z,65.46
2024-05-09T04:58:36.554Z,65.66
2024-05-09T04:59:36.666Z,65.56
2024-05-09T05:00:38.285Z,65.44
2024-05-09T05:01:36.980Z,65.41
2024-05-09T05:02:37.608Z,65.34
2024-05-09T05:03:37.125Z,65.52
2024-05-09T05:04:37.024Z,65.44
2024-05-09T05:05:37.095Z,65.37
2024-05-09T05:06:37.150Z,65.60
2024-05-09T05:07:37.220Z,65.68
2024-05-09T05:08:37.382Z,65.94
2024-05-09T05:09:37.311Z,66.14
2024-05-09T05:10:37.380Z,66.42
2024-05-09T05:11:37.564Z,66.23
2024-05-09T05:12:37.507Z,66.45
2024-05-09T05:13:40.893Z,66.36
2024-05-09T05:14:37.578Z,66.21
2024-05-09T05:15:37.566Z,66.18
2024-05-09T05:16:37.579Z,66.07
2024-05-09T05:17:37.767Z,65.87
2024-05-09T05:18:45.953Z,66.26
2024-05-09T05:19:46.082Z,66.61
2024-05-09T05:20:46.036Z,66.61
2024-05-09T05:21:45.854Z,66.43
2024-05-09T05:22:45.871Z,66.37
2024-05-09T05:23:45.919Z,66.66
2024-05-09T05:24:45.832Z,66.79
2024-05-09T05:25:45.868Z,66.63
2024-05-09T05:26:46.008Z,66.14
2024-05-09T05:27:45.856Z,66.05
2024-05-09T05:28:45.937Z,66.13
2024-05-09T05:29:45.922Z,65.74
2024-05-09T05:30:45.853Z,65.61
2024-05-09T05:31:45.948Z,65.52
2024-05-09T05:32:46.085Z,65.56
2024-05-09T05:33:45.939Z,65.71
2024-05-09T05:34:46.025Z,65.83
2024-05-09T05:35:45.873Z,65.96
2024-05-09T05:36:45.870Z,65.89
2024-05-09T05:37:45.887Z,66.02
2024-05-09T05:38:45.920Z,65.84
2024-05-09T05:39:45.864Z,65.78
2024-05-09T05:40:45.939Z,65.68
2024-05-09T05:41:45.896Z,65.73
2024-05-09T05:42:45.873Z,65.76
2024-05-09T05:43:45.918Z,65.73
2024-05-09T05:44:45.865Z,65.61
2024-05-09T05:45:45.870Z,65.32
2024-05-09T05:46:45.928Z,65.15
2024-05-09T05:47:46.386Z,65.31
2024-05-09T05:48:46.132Z,65.38
2024-05-09T05:49:46.057Z,65.56
2024-05-09T05:50:46.343Z,65.68
2024-05-09T05:51:46.169Z,65.61
2024-05-09T05:52:46.220Z,65.67
2024-05-09T05:53:46.313Z,65.79
2024-05-09T05:54:46.319Z,65.53
2024-05-09T05:55:46.474Z,64.57
2024-05-09T05:56:46.480Z,64.61
2024-05-09T05:57:46.470Z,64.77
2024-05-09T05:58:46.605Z,64.57
2024-05-09T05:59:46.651Z,64.79
2024-05-09T06:00:46.742Z,64.65
2024-05-09T06:01:46.759Z,64.27
2024-05-09T06:02:47.034Z,64.40
2024-05-09T06:03:47.110Z,64.58
2024-05-09T06:04:47.106Z,64.74
2024-05-09T06:05:47.189Z,64.78
2024-05-09T06:06:47.008Z,64.58
2024-05-09T06:07:47.543Z,64.73
2024-05-09T06:08:47.177Z,64.31
2024-05-09T06:09:48.244Z,64.15
2024-05-09T06:10:47.417Z,63.99
2024-05-09T06:11:47.240Z,64.22
2024-05-09T06:12:47.174Z,64.33
2024-05-09T06:13:47.216Z,64.59
2024-05-09T06:14:47.177Z,64.64
2024-05-09T06:15:47.190Z,64.63
2024-05-09T06:16:47.248Z,64.30
2024-05-09T06:17:47.348Z,64.32
2024-05-09T06:18:47.296Z,64.45
2024-05-09T06:19:47.358Z,64.52
2024-05-09T06:20:47.203Z,64.40
2024-05-09T06:21:47.186Z,63.98
2024-05-09T06:22:47.202Z,63.86
2024-05-09T06:23:47.211Z,63.62
2024-05-09T06:24:47.209Z,63.43
2024-05-09T06:25:47.191Z,63.59
2024-05-09T06:26:47.189Z,63.66
2024-05-09T06:27:47.214Z,63.74
2024-05-09T06:28:47.266Z,63.40
2024-05-09T06:29:47.219Z,62.95
2024-05-09T06:30:47.194Z,63.29
2024-05-09T06:31:47.237Z,63.81
2024-05-09T06:32:47.295Z,64.00
2024-05-09T06:33:47.305Z,64.03
2024-05-09T06:34:47.417Z,64.16
2024-05-09T06:35:47.303Z,64.37
2024-05-09T06:36:47.218Z,63.75
2024-05-09T06:37:47.259Z,63.73
2024-05-09T06:38:47.266Z,63.74
2024-05-09T06:39:47.221Z,63.90
2024-05-09T06:40:47.241Z,64.01
2024-05-09T06:41:47.233Z,64.03
2024-05-09T06:42:47.229Z,63.99
2024-05-09T06:43:47.292Z,63.95
2024-05-09T06:44:47.247Z,63.98
2024-05-09T06:45:47.872Z,64.11
2024-05-09T06:46:47.298Z,64.38
2024-05-09T06:47:47.395Z,64.29
2024-05-09T06:48:47.338Z,64.05
2024-05-09T06:49:47.389Z,64.21
2024-05-09T06:50:47.309Z,64.20
2024-05-09T06:51:47.226Z,64.07
2024-05-09T06:52:47.276Z,63.88
2024-05-09T06:53:47.292Z,63.43
2024-05-09T06:54:47.231Z,63.20
2024-05-09T06:55:47.271Z,63.16
2024-05-09T06:56:47.241Z,63.17
2024-05-09T06:57:47.280Z,63.04
2024-05-09T06:58:47.263Z,62.89
2024-05-09T06:59:47.248Z,62.87
2024-05-09T07:00:47.525Z,63.09
2024-05-09T07:01:47.310Z,63.28
2024-05-09T07:02:47.343Z,63.32
2024-05-09T07:03:47.306Z,63.04
2024-05-09T07:04:48.154Z,63.11
2024-05-09T07:05:48.641Z,63.11
2024-05-09T07:06:47.257Z,63.27
2024-05-09T07:07:47.380Z,62.74
2024-05-09T07:08:48.705Z,62.66
2024-05-09T07:09:47.425Z,62.56
2024-05-09T07:10:47.771Z,62.04
2024-05-09T07:11:47.809Z,62.00
2024-05-09T07:12:47.638Z,61.88
2024-05-09T07:13:47.718Z,61.92
2024-05-09T07:14:47.804Z,62.31
2024-05-09T07:15:47.805Z,62.18
2024-05-09T07:16:47.967Z,62.38
2024-05-09T07:17:48.072Z,61.95
2024-05-09T07:18:48.227Z,62.17
2024-05-09T07:19:48.201Z,62.09
2024-05-09T07:20:49.144Z,62.02
2024-05-09T07:21:48.238Z,61.89
2024-05-09T07:22:48.393Z,61.64
2024-05-09T07:23:48.433Z,61.56
2024-05-09T07:24:48.437Z,61.40
2024-05-09T07:25:48.638Z,61.73
2024-05-09T07:26:48.674Z,62.16
2024-05-09T07:27:48.591Z,61.26
2024-05-09T07:28:48.684Z,61.09
2024-05-09T07:29:48.751Z,60.56
2024-05-09T07:30:48.770Z,60.03
2024-05-09T07:31:48.812Z,60.20
2024-05-09T07:32:49.323Z,60.31
2024-05-09T07:33:48.970Z,60.24
2024-05-09T07:34:48.941Z,60.25
2024-05-09T07:35:49.017Z,60.18
2024-05-09T07:36:48.925Z,59.66
2024-05-09T07:37:49.012Z,59.94
2024-05-09T07:38:49.030Z,59.46
2024-05-09T07:39:49.012Z,59.34
2024-05-09T07:40:49.359Z,59.21
2024-05-09T07:41:49.053Z,59.29
2024-05-09T07:42:49.055Z,59.10
2024-05-09T07:43:49.084Z,58.58
2024-05-09T07:44:49.144Z,58.62
2024-05-09T07:45:53.541Z,58.00
2024-05-09T07:47:52.267Z,57.90
2024-05-09T07:49:13.670Z,58.24
2024-05-09T07:53:17.541Z,58.11
2024-05-09T07:53:35.288Z,57.79
2024-05-09T07:53:52.614Z,57.83
2024-05-09T07:54:49.435Z,58.13
2024-05-09T07:55:49.277Z,58.34
2024-05-09T07:56:49.280Z,57.96
2024-05-09T07:57:49.172Z,58.13
2024-05-09T07:58:49.115Z,57.80
2024-05-09T07:59:49.129Z,57.67
2024-05-09T08:00:49.236Z,57.61
2024-05-09T08:01:49.289Z,57.61
2024-05-09T08:02:49.147Z,58.10
2024-05-09T08:03:49.528Z,58.08
2024-05-09T08:04:49.162Z,57.62
2024-05-09T08:05:49.152Z,58.23
2024-05-09T08:06:49.216Z,58.30
2024-05-09T08:07:49.145Z,58.22
2024-05-09T08:08:49.168Z,57.52
2024-05-09T08:09:49.206Z,57.54
2024-05-09T08:10:49.198Z,57.39
2024-05-09T08:11:50.115Z,57.36
2024-05-09T08:12:49.273Z,57.58
2024-05-09T08:13:49.152Z,56.90
2024-05-09T08:14:49.163Z,57.45
2024-05-09T08:15:49.211Z,57.67
2024-05-09T08:16:49.153Z,57.31
2024-05-09T08:17:49.210Z,57.42
2024-05-09T08:18:49.299Z,57.33
2024-05-09T08:19:49.204Z,57.31
2024-05-09T08:20:49.216Z,57.29
2024-05-09T08:21:49.198Z,57.33
2024-05-09T08:22:49.187Z,57.44
2024-05-09T08:23:49.185Z,57.30
2024-05-09T08:24:49.213Z,57.65
2024-05-09T08:25:49.189Z,57.46
2024-05-09T08:26:49.177Z,57.21
2024-05-09T08:27:49.207Z,56.96
2024-05-09T08:28:49.195Z,57.35
2024-05-09T08:29:49.228Z,56.98
2024-05-09T08:30:49.456Z,57.42
2024-05-09T08:31:49.233Z,57.14
2024-05-09T08:32:49.247Z,57.09
2024-05-09T08:33:49.308Z,57.46
2024-05-09T08:34:49.197Z,57.29
2024-05-09T08:35:49.204Z,57.00
2024-05-09T08:36:49.277Z,56.99
2024-05-09T08:37:49.287Z,57.16
2024-05-09T08:38:49.313Z,56.08
2024-05-09T08:39:49.415Z,55.91
2024-05-09T08:40:49.504Z,55.97
2024-05-09T08:41:49.378Z,55.60
2024-05-09T08:42:49.496Z,55.89
2024-05-09T08:43:49.440Z,56.36
2024-05-09T08:44:49.533Z,55.99
2024-05-09T08:45:49.745Z,56.10
2024-05-09T08:46:49.573Z,56.27
2024-05-09T08:47:49.743Z,56.75
2024-05-09T08:48:49.946Z,56.98
2024-05-09T08:49:49.650Z,57.17
2024-05-09T08:50:49.726Z,56.39
2024-05-09T08:51:49.722Z,55.97
2024-05-09T08:52:49.717Z,55.62
2024-05-09T08:53:49.729Z,55.61
2024-05-09T08:54:49.759Z,55.10
2024-05-09T08:55:49.730Z,55.55
2024-05-09T08:56:49.727Z,55.16
2024-05-09T08:57:49.837Z,55.47
2024-05-09T08:58:49.792Z,54.77
2024-05-09T08:59:49.817Z,54.68
2024-05-09T09:00:50.139Z,54.19
2024-05-09T09:01:50.019Z,55.18
2024-05-09T09:02:49.985Z,55.48
2024-05-09T09:03:50.193Z,54.64
2024-05-09T09:04:50.288Z,54.23
2024-05-09T09:05:50.194Z,53.98
2024-05-09T09:06:51.446Z,54.07
2024-05-09T09:07:50.312Z,54.27
2024-05-09T09:08:50.400Z,54.33
2024-05-09T09:09:50.449Z,53.92
2024-05-09T09:10:50.512Z,53.95
2024-05-09T09:11:50.615Z,53.82
2024-05-09T09:12:50.654Z,54.49
2024-05-09T09:13:50.713Z,54.44
2024-05-09T09:14:50.792Z,54.40
2024-05-09T09:15:50.935Z,54.51
2024-05-09T09:16:50.898Z,54.44
2024-05-09T09:17:51.079Z,54.15
2024-05-09T09:18:51.178Z,53.53
2024-05-09T09:19:51.108Z,53.86
2024-05-09T09:20:51.144Z,54.09
2024-05-09T09:21:51.268Z,54.52
2024-05-09T09:22:51.267Z,54.79
2024-05-09T09:23:51.290Z,55.14
2024-05-09T09:24:51.405Z,54.89
2024-05-09T09:25:51.406Z,53.49
2024-05-09T09:26:51.450Z,52.54
2024-05-09T09:27:51.669Z,52.30
2024-05-09T09:28:51.531Z,52.15
2024-05-09T09:29:51.592Z,51.83
2024-05-09T09:30:51.686Z,52.43
2024-05-09T09:31:51.642Z,52.21
2024-05-09T09:32:51.768Z,52.94
2024-05-09T09:33:51.881Z,51.98
2024-05-09T09:34:51.732Z,51.47
2024-05-09T09:35:51.722Z,52.39
2024-05-09T09:36:51.774Z,51.74
2024-05-09T09:37:51.733Z,52.44
2024-05-09T09:38:51.771Z,52.41
2024-05-09T09:39:51.910Z,52.42
2024-05-09T09:40:51.878Z,52.34
2024-05-09T09:41:51.879Z,52.52
2024-05-09T09:42:52.024Z,52.54
2024-05-09T09:43:51.946Z,52.59
2024-05-09T09:45:01.862Z,52.86
2024-05-09T09:45:53.756Z,52.25
2024-05-09T09:46:52.037Z,52.24
2024-05-09T09:47:52.132Z,52.94
2024-05-09T09:48:52.133Z,52.84
2024-05-09T09:49:52.036Z,52.85
2024-05-09T09:50:52.195Z,52.99
2024-05-09T09:51:51.975Z,53.51
2024-05-09T09:52:51.976Z,52.61
2024-05-09T09:53:52.014Z,52.43
2024-05-09T09:54:52.065Z,52.54
2024-05-09T09:55:52.030Z,52.15
2024-05-09T09:56:51.977Z,51.99
2024-05-09T09:57:52.058Z,52.31
2024-05-09T09:58:51.992Z,52.48
2024-05-09T09:59:51.993Z,52.66
2024-05-09T10:00:52.139Z,52.67
2024-05-09T10:01:52.108Z,52.97
2024-05-09T10:02:52.146Z,53.03
2024-05-09T10:03:52.221Z,52.41
2024-05-09T10:04:52.295Z,51.94
2024-05-09T10:05:52.343Z,51.68
2024-05-09T10:06:52.339Z,51.71
2024-05-09T10:07:52.431Z,51.70
2024-05-09T10:08:52.475Z,51.33
2024-05-09T10:09:52.608Z,51.90
2024-05-09T10:10:52.870Z,52.00
2024-05-09T10:11:59.670Z,52.55
2024-05-09T10:12:53.706Z,51.93
2024-05-09T10:13:52.764Z,52.43
2024-05-09T10:14:52.682Z,51.76
2024-05-09T10:15:53.047Z,52.15
2024-05-09T10:16:52.696Z,51.29
2024-05-09T10:17:52.815Z,52.02
2024-05-09T10:18:53.014Z,52.57
2024-05-09T10:19:52.840Z,51.67
2024-05-09T10:20:52.674Z,51.54
2024-05-09T10:21:52.831Z,51.31
2024-05-09T10:22:52.802Z,51.10
2024-05-09T10:23:53.088Z,51.08
2024-05-09T10:24:53.015Z,51.36
2024-05-09T10:25:53.015Z,51.66
2024-05-09T10:26:53.054Z,51.01
2024-05-09T10:27:53.174Z,51.12
2024-05-09T10:28:53.079Z,50.14
2024-05-09T10:29:53.112Z,50.35
2024-05-09T10:30:53.229Z,50.09
2024-05-09T10:31:53.289Z,50.24
2024-05-09T10:32:53.343Z,50.09
2024-05-09T10:33:53.478Z,49.48
2024-05-09T10:34:53.374Z,50.38
2024-05-09T10:35:53.322Z,50.25
2024-05-09T10:36:53.395Z,50.04
2024-05-09T10:37:53.344Z,49.81
2024-05-09T10:38:53.398Z,50.06
2024-05-09T10:39:53.437Z,49.91
2024-05-09T10:40:53.481Z,49.54
2024-05-09T10:41:53.491Z,49.50
2024-05-09T10:42:53.525Z,49.41
2024-05-09T10:43:53.543Z,49.65
2024-05-09T10:44:53.557Z,50.86
2024-05-09T10:45:53.663Z,49.06
2024-05-09T10:46:53.631Z,49.50
2024-05-09T10:47:53.840Z,49.84
2024-05-09T10:48:53.777Z,49.97
2024-05-09T10:49:53.877Z,49.33
2024-05-09T10:50:53.741Z,50.25
2024-05-09T10:51:53.828Z,50.16
2024-05-09T10:52:53.751Z,49.74
2024-05-09T10:53:54.105Z,49.74
2024-05-09T10:54:53.871Z,49.58
2024-05-09T10:55:53.815Z,49.49
2024-05-09T10:56:53.820Z,49.76
2024-05-09T10:57:53.923Z,49.57
2024-05-09T10:58:53.883Z,50.50
2024-05-09T10:59:53.874Z,49.80
2024-05-09T11:00:54.035Z,49.36
2024-05-09T11:01:54.104Z,49.89
2024-05-09T11:02:53.973Z,49.09
2024-05-09T11:03:54.207Z,50.33
2024-05-09T11:04:54.181Z,49.71
2024-05-09T11:05:54.126Z,49.70
2024-05-09T11:06:54.089Z,49.46
2024-05-09T11:07:54.293Z,49.10
2024-05-09T11:08:54.184Z,49.78
2024-05-09T11:09:54.305Z,49.43
2024-05-09T11:10:54.307Z,49.15
2024-05-09T11:11:54.303Z,48.58
2024-05-09T11:12:54.273Z,48.82
2024-05-09T11:13:54.226Z,48.10
2024-05-09T11:14:54.247Z,49.02
2024-05-09T11:15:54.339Z,49.13
2024-05-09T11:16:54.336Z,49.47
2024-05-09T11:17:54.487Z,48.85
2024-05-09T11:18:54.621Z,48.79
2024-05-09T11:19:54.536Z,48.69
2024-05-09T11:20:54.551Z,48.45
2024-05-09T11:21:54.732Z,48.35
2024-05-09T11:22:54.820Z,48.63
2024-05-09T11:23:54.778Z,48.81
2024-05-09T11:24:55.010Z,49.07
2024-05-09T11:25:54.871Z,49.92
2024-05-09T11:26:54.954Z,49.53
2024-05-09T11:27:55.078Z,48.76
2024-05-09T11:28:55.052Z,48.57
2024-05-09T11:29:55.004Z,48.09
2024-05-09T11:30:55.138Z,48.41
2024-05-09T11:31:55.159Z,48.19
2024-05-09T11:32:55.234Z,48.51
2024-05-09T11:33:55.421Z,48.84
2024-05-09T11:34:55.228Z,48.00
2024-05-09T11:35:55.204Z,47.74
2024-05-09T11:36:55.293Z,48.15
2024-05-09T11:37:55.280Z,48.08
2024-05-09T11:38:55.294Z,47.35
2024-05-09T11:39:55.346Z,47.94
2024-05-09T11:40:55.344Z,47.90
2024-05-09T11:41:55.313Z,47.09
2024-05-09T11:42:55.411Z,46.32
2024-05-09T11:43:55.392Z,46.12
2024-05-09T11:44:55.435Z,45.12
2024-05-09T11:45:55.532Z,45.74
2024-05-09T11:46:55.572Z,45.72
2024-05-09T11:47:55.760Z,45.47
2024-05-09T11:48:55.723Z,45.90
2024-05-09T11:49:55.757Z,45.42
2024-05-09T11:50:55.806Z,45.90
2024-05-09T11:51:55.890Z,45.96
2024-05-09T11:52:55.762Z,45.33
2024-05-09T11:53:55.762Z,44.96
2024-05-09T11:54:55.855Z,44.63
2024-05-09T11:55:55.845Z,44.94
2024-05-09T11:56:55.859Z,44.50
2024-05-09T11:57:56.068Z,44.66
2024-05-09T11:58:55.969Z,44.43
2024-05-09T11:59:55.961Z,43.99
2024-05-09T12:00:56.100Z,44.49
2024-05-09T12:01:56.099Z,43.99
2024-05-09T12:02:56.105Z,43.64
2024-05-09T12:03:56.288Z,43.76
2024-05-09T12:04:56.270Z,43.16
2024-05-09T12:05:56.372Z,43.51
2024-05-09T12:06:56.421Z,42.48
2024-05-09T12:07:56.456Z,42.29
2024-05-09T12:08:56.544Z,42.49
2024-05-09T12:09:56.580Z,42.60
2024-05-09T12:10:57.304Z,42.74
2024-05-09T12:11:56.723Z,43.02
2024-05-09T12:12:56.771Z,42.20
2024-05-09T12:13:56.803Z,42.12
2024-05-09T12:14:56.874Z,42.36
2024-05-09T12:15:56.920Z,42.01
2024-05-09T12:16:57.017Z,42.04
2024-05-09T12:17:59.939Z,41.48
2024-05-09T12:18:57.302Z,42.09
2024-05-09T12:19:57.031Z,42.37
2024-05-09T12:20:57.017Z,41.76
2024-05-09T12:21:57.067Z,41.61
2024-05-09T12:22:57.038Z,41.47
2024-05-09T12:23:57.035Z,41.66
2024-05-09T12:24:57.102Z,41.89
2024-05-09T12:25:57.040Z,42.95
2024-05-09T12:26:57.053Z,43.02
2024-05-09T12:27:57.061Z,43.44
2024-05-09T12:28:57.023Z,43.49
2024-05-09T12:29:57.034Z,43.47
2024-05-09T12:30:57.096Z,43.62
2024-05-09T12:31:57.109Z,44.01
2024-05-09T12:32:57.258Z,43.89
2024-05-09T12:33:57.217Z,43.31
2024-05-09T12:34:57.034Z,42.64
2024-05-09T12:35:57.035Z,42.08
2024-05-09T12:36:57.159Z,42.63
2024-05-09T12:37:57.087Z,41.97
2024-05-09T12:38:57.224Z,41.75
2024-05-09T12:39:57.266Z,41.70
2024-05-09T12:40:57.386Z,42.26
2024-05-09T12:41:57.337Z,42.90
2024-05-09T12:42:57.467Z,42.62
2024-05-09T12:43:57.680Z,43.15
2024-05-09T12:44:57.439Z,43.96
2024-05-09T12:45:58.249Z,43.34
2024-05-09T12:46:57.613Z,43.57
2024-05-09T12:47:57.717Z,43.36
2024-05-09T12:48:57.744Z,43.19
2024-05-09T12:49:57.712Z,42.52
2024-05-09T12:50:57.907Z,43.02
2024-05-09T12:51:57.757Z,42.46
2024-05-09T12:52:57.821Z,42.31
2024-05-09T12:53:57.903Z,42.18
2024-05-09T12:54:57.951Z,42.03
2024-05-09T12:56:01.931Z,41.96
2024-05-09T12:56:58.998Z,41.79